Time;durP1;ratioP1;P1;durP2;ratioP2;P2;SDS_P1;SDS_P2;PMS_P1;PMS_P2;Temp;Humidity;BMP_temperature;BMP_pressure;BME280_temperature;BME280_humidity;BME280_pressure;Samples;Min_cycle;Max_cycle;Signal;HPM_P1;HPM_P2
2023/01/20 00:01:16;;;;;;;46.00;24.85;;;1.50;99.90;;;;;;5089544;28;20395;-65
2023/01/20 00:03:44;;;;;;;45.10;25.63;;;1.50;99.90;;;;;;5093661;28;20453;-65
2023/01/20 00:06:10;;;;;;;51.10;26.73;;;1.50;99.90;;;;;;5096612;28;20134;-65
2023/01/20 00:08:37;;;;;;;49.22;26.05;;;1.50;99.90;;;;;;5089818;28;20050;-65
2023/01/20 00:11:04;;;;;;;54.40;26.83;;;1.50;99.90;;;;;;5072421;28;20493;-66
2023/01/20 00:13:30;;;;;;;45.47;25.75;;;1.50;99.90;;;;;;5091160;28;20048;-65
2023/01/20 00:15:55;;;;;;;50.50;28.10;;;1.50;99.90;;;;;;5089133;28;20767;-65
2023/01/20 00:18:21;;;;;;;53.38;29.05;;;1.50;99.90;;;;;;5098000;28;20020;-63
2023/01/20 00:20:47;;;;;;;48.75;26.20;;;1.50;99.90;;;;;;5091156;28;20486;-65
2023/01/20 00:23:12;;;;;;;46.47;25.25;;;1.50;99.90;;;;;;5094208;28;20474;-65
2023/01/20 00:25:38;;;;;;;48.70;26.42;;;1.50;99.90;;;;;;5071223;28;20048;-63
2023/01/20 00:28:03;;;;;;;50.15;26.65;;;1.50;99.90;;;;;;5094916;28;20023;-63
2023/01/20 00:30:29;;;;;;;48.88;26.98;;;1.50;99.90;;;;;;5091635;28;20446;-63
2023/01/20 00:32:55;;;;;;;46.80;24.60;;;1.40;99.90;;;;;;5089755;28;20389;-63
2023/01/20 00:35:20;;;;;;;49.60;25.30;;;1.50;99.90;;;;;;5095286;28;20020;-65
2023/01/20 00:37:46;;;;;;;43.58;24.27;;;1.40;99.90;;;;;;5112979;27;20020;-63
2023/01/20 00:40:11;;;;;;;51.80;24.85;;;1.50;99.90;;;;;;5089548;28;20430;-64
2023/01/20 00:42:37;;;;;;;50.22;27.77;;;1.50;99.90;;;;;;5095231;28;20477;-63
2023/01/20 00:45:03;;;;;;;43.42;23.77;;;1.50;99.90;;;;;;5094689;28;20027;-63
2023/01/20 00:47:28;;;;;;;53.75;27.40;;;1.50;99.90;;;;;;5089123;28;20107;-65
2023/01/20 00:49:54;;;;;;;46.42;26.27;;;1.40;99.90;;;;;;5094040;28;20051;-63
2023/01/20 00:52:19;;;;;;;45.97;25.45;;;1.50;99.90;;;;;;5077033;28;20380;-63
2023/01/20 00:54:45;;;;;;;47.97;24.98;;;1.50;99.90;;;;;;5074125;28;20016;-63
2023/01/20 00:57:11;;;;;;;42.08;21.92;;;1.40;99.90;;;;;;5094634;28;20032;-63
2023/01/20 00:59:37;;;;;;;43.42;22.70;;;1.50;99.90;;;;;;5091325;28;20111;-63
2023/01/20 01:02:03;;;;;;;36.90;18.92;;;1.50;99.90;;;;;;5078504;28;20023;-63
2023/01/20 01:04:29;;;;;;;35.97;19.77;;;1.60;99.90;;;;;;5090636;28;20024;-63
2023/01/20 01:06:54;;;;;;;36.45;21.83;;;1.60;99.90;;;;;;5089065;28;20488;-63
2023/01/20 01:09:20;;;;;;;39.95;21.98;;;1.60;99.90;;;;;;5088505;28;20112;-64
2023/01/20 01:11:47;;;;;;;34.28;20.08;;;1.50;99.90;;;;;;5070367;28;20457;-64
2023/01/20 01:14:12;;;;;;;36.25;20.60;;;1.60;99.90;;;;;;5094315;28;20048;-63
2023/01/20 01:16:38;;;;;;;38.75;21.45;;;1.50;99.90;;;;;;5088724;28;20034;-63
2023/01/20 01:19:03;;;;;;;34.58;20.23;;;1.50;99.90;;;;;;5076682;28;20508;-63
2023/01/20 01:21:29;;;;;;;35.72;19.50;;;1.50;99.90;;;;;;5093303;28;20392;-64
2023/01/20 01:23:54;;;;;;;32.60;17.52;;;1.50;99.90;;;;;;5090593;28;20089;-64
2023/01/20 01:26:20;;;;;;;32.97;18.38;;;1.50;99.90;;;;;;5079310;28;20078;-64
2023/01/20 01:28:49;;;;;;;34.80;18.92;;;1.50;99.90;;;;;;5097426;28;20076;-64
2023/01/20 01:31:17;;;;;;;34.53;19.15;;;1.50;99.90;;;;;;5088532;28;20149;-64
2023/01/20 01:33:43;;;;;;;33.53;19.10;;;1.50;99.90;;;;;;5090491;28;20028;-64
2023/01/20 01:36:12;;;;;;;35.38;18.90;;;1.50;99.90;;;;;;5092500;28;20028;-64
2023/01/20 01:38:38;;;;;;;32.47;18.35;;;1.50;99.90;;;;;;5074917;28;20044;-64
2023/01/20 01:41:04;;;;;;;37.08;19.40;;;1.40;99.90;;;;;;5093932;28;20016;-64
2023/01/20 01:43:34;;;;;;;35.38;19.48;;;1.40;99.90;;;;;;5112219;27;20480;-64
2023/01/20 01:46:00;;;;;;;33.00;19.10;;;1.40;99.90;;;;;;5091394;28;20035;-64
2023/01/20 01:48:42;;;;;;;37.88;20.02;;;1.40;99.90;;;;;;5088045;28;20047;-64
2023/01/20 01:51:22;;;;;;;33.65;19.50;;;1.40;99.90;;;;;;5091848;28;20020;-65
2023/01/20 01:53:53;;;;;;;35.40;19.35;;;1.40;99.90;;;;;;5095554;28;20030;-64
2023/01/20 01:56:21;;;;;;;31.83;18.75;;;1.30;99.90;;;;;;5069642;28;20035;-64
2023/01/20 01:58:49;;;;;;;31.15;18.20;;;1.30;99.90;;;;;;5093806;27;20196;-64
2023/01/20 02:01:15;;;;;;;32.35;18.52;;;1.30;99.90;;;;;;5092254;28;20012;-64
2023/01/20 02:03:56;;;;;;;33.53;19.85;;;1.30;99.90;;;;;;5096411;28;20020;-64
2023/01/20 02:06:25;;;;;;;31.55;18.33;;;1.40;99.90;;;;;;5071968;28;20067;-64
2023/01/20 02:08:51;;;;;;;40.70;21.90;;;1.30;99.90;;;;;;5069030;28;20036;-64
2023/01/20 02:11:17;;;;;;;42.47;22.08;;;1.30;99.90;;;;;;5096194;28;20270;-64
2023/01/20 02:13:42;;;;;;;42.63;22.45;;;1.30;99.90;;;;;;5087812;28;20606;-64
2023/01/20 02:16:16;;;;;;;35.03;19.67;;;1.30;99.90;;;;;;5082291;28;20031;-64
2023/01/20 02:18:55;;;;;;;38.40;21.45;;;1.40;99.90;;;;;;5117769;27;20026;-64
2023/01/20 02:21:38;;;;;;;48.80;25.25;;;1.40;99.90;;;;;;5099908;28;20025;-64
2023/01/20 02:24:36;;;;;;;49.05;25.95;;;1.40;99.90;;;;;;5105441;27;20027;-64
2023/01/20 02:27:10;;;;;;;49.92;26.60;;;1.40;99.90;;;;;;5092245;28;20028;-64
2023/01/20 02:30:11;;;;;;;45.58;24.25;;;1.30;99.90;;;;;;5087603;28;20503;-64
2023/01/20 02:33:02;;;;;;;47.33;26.08;;;1.40;99.90;;;;;;5093997;28;20408;-64
2023/01/20 02:35:54;;;;;;;50.25;27.75;;;1.40;99.90;;;;;;5092977;28;20024;-64
2023/01/20 02:38:31;;;;;;;53.67;28.27;;;1.40;99.90;;;;;;5071957;28;20076;-64
2023/01/20 02:41:05;;;;;;;52.63;27.02;;;1.30;99.90;;;;;;5106780;28;20038;-64
2023/01/20 02:43:37;;;;;;;53.38;28.05;;;1.40;99.90;;;;;;5093571;28;20023;-64
2023/01/20 02:46:03;;;;;;;53.90;25.80;;;1.40;99.90;;;;;;5092992;28;20477;-64
2023/01/20 02:48:38;;;;;;;47.50;25.52;;;1.40;99.90;;;;;;5089875;28;20024;-64
2023/01/20 02:51:08;;;;;;;59.05;29.27;;;1.40;99.90;;;;;;5091576;28;20141;-64
2023/01/20 02:53:46;;;;;;;59.88;29.45;;;1.40;99.90;;;;;;5082043;28;20032;-64
2023/01/20 02:56:14;;;;;;;61.85;29.73;;;1.40;99.90;;;;;;5087424;28;20514;-64
2023/01/20 02:58:47;;;;;;;57.92;28.23;;;1.40;99.90;;;;;;5093056;28;20046;-65
2023/01/20 03:01:19;;;;;;;64.75;31.55;;;1.40;99.90;;;;;;5094337;28;20098;-64
2023/01/20 03:03:48;;;;;;;63.70;30.05;;;1.40;99.90;;;;;;5091293;28;20027;-66
2023/01/20 03:06:19;;;;;;;62.77;30.77;;;1.40;99.90;;;;;;5083107;28;20024;-65
2023/01/20 03:08:49;;;;;;;56.83;28.00;;;1.40;99.90;;;;;;5096699;28;20273;-65
2023/01/20 03:11:15;;;;;;;66.07;31.20;;;1.40;99.90;;;;;;5096578;28;20027;-65
2023/01/20 03:13:53;;;;;;;63.88;30.17;;;1.40;99.90;;;;;;5096093;28;20458;-65
2023/01/20 03:16:22;;;;;;;60.85;29.60;;;1.40;99.90;;;;;;5090723;28;20020;-65
2023/01/20 03:18:49;;;;;;;73.28;32.83;;;1.40;99.90;;;;;;5090507;28;20034;-65
2023/01/20 03:21:15;;;;;;;67.03;31.10;;;1.40;99.90;;;;;;5075558;28;20488;-65
2023/01/20 03:23:45;;;;;;;66.53;32.70;;;1.30;99.90;;;;;;5077971;28;20031;-65
2023/01/20 03:26:12;;;;;;;62.33;30.00;;;1.30;99.90;;;;;;5095179;28;20384;-65
2023/01/20 03:28:40;;;;;;;75.85;34.83;;;1.30;99.90;;;;;;5098102;28;20577;-66
2023/01/20 03:31:19;;;;;;;67.53;32.40;;;1.30;99.90;;;;;;5093835;28;20031;-65
2023/01/20 03:33:47;;;;;;;74.70;33.72;;;1.30;99.90;;;;;;5091912;28;20035;-65
2023/01/20 03:36:14;;;;;;;77.63;34.17;;;1.20;99.90;;;;;;5080566;28;20029;-65
2023/01/20 03:38:41;;;;;;;67.93;31.88;;;1.20;99.90;;;;;;5082830;28;20110;-66
2023/01/20 03:41:23;;;;;;;76.82;33.40;;;1.20;99.90;;;;;;5075595;28;20453;-65
2023/01/20 03:44:00;;;;;;;70.00;33.00;;;1.20;99.90;;;;;;5096327;28;20019;-66
2023/01/20 03:46:39;;;;;;;77.63;33.72;;;1.20;99.90;;;;;;5090440;28;20047;-65
2023/01/20 03:49:35;;;;;;;66.15;30.15;;;1.20;99.90;;;;;;5115101;27;20081;-65
2023/01/20 03:52:07;;;;;;;65.05;29.65;;;1.10;99.90;;;;;;5092277;28;20027;-65
2023/01/20 03:54:44;;;;;;;69.93;30.98;;;1.10;99.90;;;;;;5092775;28;20031;-65
2023/01/20 03:57:19;;;;;;;63.88;29.50;;;1.20;99.90;;;;;;5077676;28;20054;-65
2023/01/20 03:59:48;;;;;;;64.05;30.02;;;1.20;99.90;;;;;;5090371;28;20016;-66
2023/01/20 04:02:14;;;;;;;72.40;31.77;;;1.20;99.90;;;;;;5092452;28;20019;-65
2023/01/20 04:04:42;;;;;;;63.63;29.27;;;1.20;99.90;;;;;;5081965;28;20034;-65
2023/01/20 04:07:15;;;;;;;61.17;27.77;;;1.20;99.90;;;;;;5093120;28;20028;-66
2023/01/20 04:09:46;;;;;;;70.32;30.67;;;1.30;99.90;;;;;;5090710;28;20472;-65
2023/01/20 04:12:12;;;;;;;70.97;30.40;;;1.20;99.90;;;;;;5071788;28;20052;-65
2023/01/20 04:14:37;;;;;;;63.30;28.02;;;1.20;99.90;;;;;;5074238;28;20028;-65
2023/01/20 04:17:04;;;;;;;57.90;26.70;;;1.20;99.90;;;;;;5092850;28;20484;-65
2023/01/20 04:19:30;;;;;;;61.85;29.13;;;1.20;99.90;;;;;;5076954;28;20443;-66
2023/01/20 04:22:20;;;;;;;64.28;29.30;;;1.20;99.90;;;;;;5093046;28;20228;-65
2023/01/20 04:25:14;;;;;;;64.78;28.42;;;1.20;99.90;;;;;;5092114;28;20027;-65
2023/01/20 04:27:40;;;;;;;59.03;28.67;;;1.20;99.90;;;;;;5094203;28;20056;-66
2023/01/20 04:30:06;;;;;;;64.20;27.40;;;1.20;99.90;;;;;;5089591;28;20027;-65
2023/01/20 04:32:31;;;;;;;66.15;30.58;;;1.20;99.90;;;;;;5071716;28;20032;-65
2023/01/20 04:34:57;;;;;;;67.85;27.85;;;1.20;99.90;;;;;;5089520;28;20390;-65
2023/01/20 04:37:24;;;;;;;66.63;30.92;;;1.20;99.90;;;;;;5089140;28;20043;-65
2023/01/20 04:39:50;;;;;;;62.63;27.40;;;1.20;99.90;;;;;;5089553;28;20024;-65
2023/01/20 04:42:16;;;;;;;62.70;26.55;;;1.10;99.90;;;;;;5089600;28;20481;-65
2023/01/20 04:44:41;;;;;;;59.40;28.08;;;1.10;99.90;;;;;;5089465;28;20067;-66
2023/01/20 04:47:07;;;;;;;57.70;27.23;;;1.10;99.90;;;;;;5091790;27;20028;-65
2023/01/20 04:49:34;;;;;;;54.75;26.10;;;1.10;99.90;;;;;;5096026;28;20476;-65
2023/01/20 04:51:59;;;;;;;59.30;27.75;;;1.20;99.90;;;;;;5097634;28;20533;-65
2023/01/20 04:54:25;;;;;;;60.60;28.52;;;1.10;99.90;;;;;;5081929;28;20123;-65
2023/01/20 04:56:50;;;;;;;60.15;28.50;;;1.10;99.90;;;;;;5092324;28;20023;-65
2023/01/20 04:59:16;;;;;;;67.63;29.20;;;1.10;99.90;;;;;;5094839;28;20021;-65
2023/01/20 05:01:41;;;;;;;61.15;27.52;;;1.00;99.90;;;;;;5089167;28;20485;-65
2023/01/20 05:04:07;;;;;;;63.17;28.85;;;1.00;99.90;;;;;;5094216;28;20476;-65
2023/01/20 05:06:34;;;;;;;69.85;30.45;;;0.90;99.90;;;;;;5091380;28;20039;-66
2023/01/20 05:08:59;;;;;;;64.72;28.73;;;0.90;99.90;;;;;;5094425;28;20055;-65
2023/01/20 05:11:25;;;;;;;64.13;27.52;;;0.90;99.90;;;;;;5089172;28;20458;-65
2023/01/20 05:13:50;;;;;;;62.78;27.55;;;0.90;99.90;;;;;;5088812;28;20048;-65
2023/01/20 05:16:22;;;;;;;61.90;28.25;;;0.90;99.90;;;;;;5094159;28;20024;-65
2023/01/20 05:18:48;;;;;;;62.83;28.05;;;0.90;99.90;;;;;;5088897;28;20074;-65
2023/01/20 05:21:14;;;;;;;64.50;28.27;;;0.90;99.90;;;;;;5087605;28;20024;-65
2023/01/20 05:23:39;;;;;;;62.72;27.92;;;0.90;99.90;;;;;;5088788;28;20513;-65
2023/01/20 05:26:05;;;;;;;60.30;27.02;;;0.90;99.90;;;;;;5090766;28;20097;-65
2023/01/20 05:28:30;;;;;;;65.78;29.55;;;0.90;99.90;;;;;;5088838;28;20107;-65
2023/01/20 05:30:56;;;;;;;60.85;28.08;;;0.90;99.90;;;;;;5090329;28;20434;-65
2023/01/20 05:33:21;;;;;;;58.22;27.23;;;0.90;99.90;;;;;;5070083;28;20020;-65
2023/01/20 05:35:47;;;;;;;66.18;28.88;;;0.90;99.90;;;;;;5090445;28;20358;-66
2023/01/20 05:38:12;;;;;;;63.50;27.88;;;0.90;99.90;;;;;;5096179;28;20535;-65
2023/01/20 05:40:38;;;;;;;64.63;29.27;;;0.90;99.90;;;;;;5096861;28;20073;-65
2023/01/20 05:43:03;;;;;;;60.72;27.73;;;0.90;99.90;;;;;;5110941;27;20055;-65
2023/01/20 05:45:31;;;;;;;65.47;26.00;;;0.90;99.90;;;;;;5088831;28;20024;-65
2023/01/20 05:47:57;;;;;;;61.20;26.95;;;0.90;99.90;;;;;;5090652;28;20568;-65
2023/01/20 05:50:25;;;;;;;67.43;30.90;;;0.90;99.90;;;;;;5085687;28;20035;-66
2023/01/20 05:52:50;;;;;;;62.47;29.73;;;0.90;99.90;;;;;;5092383;28;20023;-65
2023/01/20 05:55:16;;;;;;;58.00;25.90;;;0.90;99.90;;;;;;5090603;28;20457;-65
2023/01/20 05:57:42;;;;;;;62.22;29.25;;;0.80;99.90;;;;;;5090627;28;20512;-65
2023/01/20 06:00:08;;;;;;;63.20;28.88;;;0.80;99.90;;;;;;5080474;28;20047;-65
2023/01/20 06:02:34;;;;;;;67.93;29.35;;;0.80;99.90;;;;;;5075482;28;20376;-65
2023/01/20 06:05:00;;;;;;;69.18;29.23;;;0.80;99.90;;;;;;5069459;28;20024;-65
2023/01/20 06:07:28;;;;;;;62.00;28.70;;;0.80;99.90;;;;;;5074729;28;20028;-65
2023/01/20 06:09:54;;;;;;;65.93;29.60;;;0.80;99.90;;;;;;5087550;28;20034;-65
2023/01/20 06:12:20;;;;;;;72.28;30.75;;;0.90;99.90;;;;;;5090356;28;20075;-65
2023/01/20 06:14:45;;;;;;;64.38;30.40;;;0.90;99.90;;;;;;5112025;27;20473;-65
2023/01/20 06:17:11;;;;;;;68.03;32.00;;;0.90;99.90;;;;;;5089531;28;20024;-65
2023/01/20 06:19:36;;;;;;;63.80;29.80;;;0.80;99.90;;;;;;5069373;28;20027;-65
2023/01/20 06:22:02;;;;;;;68.05;30.63;;;0.80;99.90;;;;;;5077102;28;20553;-65
2023/01/20 06:24:27;;;;;;;66.55;29.15;;;0.80;99.90;;;;;;5099281;28;20103;-65
2023/01/20 06:26:53;;;;;;;68.97;31.90;;;0.80;99.90;;;;;;5088863;28;20031;-65
2023/01/20 06:29:19;;;;;;;67.47;31.15;;;0.80;99.90;;;;;;5092825;28;20099;-65
2023/01/20 06:31:45;;;;;;;66.88;31.10;;;0.70;99.90;;;;;;5091329;28;20016;-65
2023/01/20 06:34:11;;;;;;;62.10;29.77;;;0.80;99.90;;;;;;5090977;28;20095;-65
2023/01/20 06:36:37;;;;;;;64.65;29.48;;;0.80;99.90;;;;;;5093415;28;20693;-65
2023/01/20 06:39:03;;;;;;;61.72;28.20;;;0.70;99.90;;;;;;5090312;28;20035;-65
2023/01/20 06:41:28;;;;;;;63.53;29.77;;;0.80;99.90;;;;;;5092280;28;20043;-65
2023/01/20 06:43:54;;;;;;;66.97;31.45;;;0.80;99.90;;;;;;5090655;28;20383;-65
2023/01/20 06:46:21;;;;;;;71.72;32.58;;;0.80;99.90;;;;;;5090938;28;20027;-65
2023/01/20 06:48:46;;;;;;;72.28;32.50;;;0.80;99.90;;;;;;5072776;28;20020;-65
2023/01/20 06:51:14;;;;;;;64.78;31.70;;;0.80;99.90;;;;;;5093145;28;20034;-65
2023/01/20 06:53:40;;;;;;;74.35;32.40;;;0.80;99.90;;;;;;5091237;28;20499;-65
2023/01/20 06:56:06;;;;;;;69.18;32.03;;;0.80;99.90;;;;;;5072865;28;20020;-65
2023/01/20 06:58:32;;;;;;;71.28;31.45;;;0.80;99.90;;;;;;5101117;28;20099;-65
2023/01/20 07:01:05;;;;;;;70.68;32.65;;;0.70;99.90;;;;;;5093842;28;20018;-65
2023/01/20 07:03:30;;;;;;;71.80;32.03;;;0.80;99.90;;;;;;5102347;28;20376;-65
2023/01/20 07:06:01;;;;;;;60.67;29.42;;;0.80;99.90;;;;;;5106882;28;20480;-65
2023/01/20 07:08:26;;;;;;;72.28;32.67;;;0.80;99.90;;;;;;5108082;28;20088;-65
2023/01/20 07:10:52;;;;;;;69.20;30.73;;;0.80;99.90;;;;;;5106455;28;20024;-65
2023/01/20 07:13:18;;;;;;;59.88;29.08;;;0.80;99.90;;;;;;5102395;28;20539;-65
2023/01/20 07:15:43;;;;;;;72.72;32.08;;;0.80;99.90;;;;;;5096664;28;20485;-65
2023/01/20 07:18:09;;;;;;;74.25;31.65;;;0.80;99.90;;;;;;5096161;28;20066;-65
2023/01/20 07:20:34;;;;;;;68.97;31.52;;;0.80;99.90;;;;;;5083735;28;20065;-65
2023/01/20 07:23:01;;;;;;;75.50;33.15;;;0.80;99.90;;;;;;5102265;28;20061;-64
2023/01/20 07:25:27;;;;;;;67.97;30.02;;;0.90;99.90;;;;;;5109220;28;20031;-65
2023/01/20 07:27:52;;;;;;;65.50;30.10;;;0.80;99.90;;;;;;5099152;28;20059;-65
2023/01/20 07:30:18;;;;;;;63.83;31.33;;;0.80;99.90;;;;;;5106503;28;20486;-65
2023/01/20 07:32:43;;;;;;;67.18;30.23;;;0.90;99.90;;;;;;5090545;28;20393;-65
2023/01/20 07:35:09;;;;;;;68.68;29.42;;;0.90;99.90;;;;;;5098831;28;20023;-64
2023/01/20 07:37:35;;;;;;;67.45;30.25;;;0.90;99.90;;;;;;5096890;28;20012;-65
2023/01/20 07:40:00;;;;;;;68.22;29.90;;;0.90;99.90;;;;;;5102315;28;20023;-65
2023/01/20 07:42:26;;;;;;;69.40;30.60;;;0.80;99.90;;;;;;5090352;28;20024;-65
2023/01/20 07:44:51;;;;;;;65.43;29.88;;;0.90;99.90;;;;;;5094282;28;20497;-65
2023/01/20 07:47:17;;;;;;;72.05;31.02;;;0.90;99.90;;;;;;5093918;28;20099;-65
2023/01/20 07:49:42;;;;;;;73.15;32.03;;;0.90;99.90;;;;;;5081708;28;20115;-65
2023/01/20 07:52:08;;;;;;;66.88;29.27;;;0.90;99.90;;;;;;5079759;28;20034;-65
2023/01/20 07:54:33;;;;;;;70.07;30.30;;;0.90;99.90;;;;;;5094357;28;20370;-65
2023/01/20 07:56:59;;;;;;;69.22;30.65;;;0.90;99.90;;;;;;5093750;28;20442;-65
2023/01/20 07:59:25;;;;;;;69.30;31.92;;;0.90;99.90;;;;;;5094227;28;20499;-65
2023/01/20 08:01:50;;;;;;;65.43;29.88;;;0.90;99.90;;;;;;5109501;27;20024;-65
2023/01/20 08:04:16;;;;;;;74.32;32.22;;;0.90;99.90;;;;;;5104126;28;20026;-65
2023/01/20 08:06:42;;;;;;;69.65;31.27;;;0.80;99.90;;;;;;5112223;27;20020;-65
2023/01/20 08:09:11;;;;;;;80.28;33.08;;;0.90;99.90;;;;;;5109624;28;20363;-64
2023/01/20 08:11:37;;;;;;;75.63;30.98;;;0.80;99.90;;;;;;5092852;28;20066;-65
2023/01/20 08:14:02;;;;;;;73.80;33.13;;;0.80;99.90;;;;;;5109942;28;20047;-65
2023/01/20 08:16:28;;;;;;;74.72;33.38;;;0.80;99.90;;;;;;5102424;28;20023;-65
2023/01/20 08:18:54;;;;;;;77.70;33.70;;;0.80;99.90;;;;;;5109912;28;20040;-65
2023/01/20 08:21:23;;;;;;;73.78;32.10;;;0.80;99.90;;;;;;5108973;28;20393;-65
2023/01/20 08:23:49;;;;;;;74.32;32.72;;;0.80;99.90;;;;;;5113309;28;20028;-65
2023/01/20 08:26:14;;;;;;;72.32;31.30;;;0.80;99.90;;;;;;5113703;28;20496;-65
2023/01/20 08:28:40;;;;;;;77.22;34.38;;;0.80;99.90;;;;;;5076376;28;20031;-65
2023/01/20 08:31:06;;;;;;;79.72;33.42;;;0.90;99.90;;;;;;5101491;27;20028;-65
2023/01/20 08:33:32;;;;;;;78.65;33.42;;;0.90;99.90;;;;;;5079703;28;20610;-65
2023/01/20 08:36:09;;;;;;;84.68;36.35;;;0.90;99.90;;;;;;5106091;28;20023;-65
2023/01/20 08:38:35;;;;;;;73.03;32.95;;;0.90;99.90;;;;;;5110816;28;20024;-65
2023/01/20 08:41:04;;;;;;;72.68;32.05;;;0.90;99.90;;;;;;5095957;28;20027;-65
2023/01/20 08:43:30;;;;;;;74.40;33.60;;;0.90;99.90;;;;;;5111106;28;20019;-65
2023/01/20 08:46:02;;;;;;;72.72;32.75;;;0.90;99.90;;;;;;5116235;27;20365;-65
2023/01/20 08:48:28;;;;;;;68.28;32.45;;;1.00;99.90;;;;;;5105997;27;20582;-65
2023/01/20 08:50:54;;;;;;;68.63;31.08;;;0.90;99.90;;;;;;5109037;28;20106;-65
2023/01/20 08:53:19;;;;;;;67.07;30.73;;;1.00;99.90;;;;;;5111592;28;20051;-66
2023/01/20 08:55:57;;;;;;;71.13;33.22;;;1.00;99.90;;;;;;5108871;28;20035;-65
2023/01/20 08:58:23;;;;;;;71.10;31.13;;;0.90;99.90;;;;;;5106656;28;20020;-65
2023/01/20 09:00:49;;;;;;;69.82;33.47;;;0.90;99.90;;;;;;5110565;28;20030;-65
2023/01/20 09:03:14;;;;;;;71.25;31.65;;;0.90;99.90;;;;;;5091722;28;20047;-66
2023/01/20 09:05:40;;;;;;;68.00;31.50;;;1.00;99.90;;;;;;5111579;28;20024;-65
2023/01/20 09:08:05;;;;;;;77.53;33.10;;;1.00;99.90;;;;;;5090190;28;20023;-66
2023/01/20 09:10:32;;;;;;;70.82;32.70;;;1.00;99.90;;;;;;5106365;28;20032;-65
2023/01/20 09:12:57;;;;;;;72.57;31.05;;;1.00;99.90;;;;;;5106867;28;20043;-66
2023/01/20 09:15:23;;;;;;;74.68;31.90;;;1.00;99.90;;;;;;5107154;28;20624;-66
2023/01/20 09:17:48;;;;;;;69.53;32.53;;;1.10;99.90;;;;;;5108134;28;20076;-65
2023/01/20 09:20:14;;;;;;;71.57;32.60;;;1.10;99.90;;;;;;5117196;27;20012;-65
2023/01/20 09:22:39;;;;;;;72.68;30.63;;;1.10;99.90;;;;;;5109962;28;20464;-66
2023/01/20 09:25:07;;;;;;;69.32;29.90;;;1.10;99.90;;;;;;5108556;28;20032;-66
2023/01/20 09:27:33;;;;;;;68.63;30.70;;;1.10;99.90;;;;;;5106823;28;20035;-66
2023/01/20 09:29:58;;;;;;;70.95;29.65;;;1.10;99.90;;;;;;5089481;28;20453;-66
2023/01/20 09:32:24;;;;;;;66.95;30.33;;;1.10;99.90;;;;;;5108109;28;20075;-65
2023/01/20 09:34:49;;;;;;;64.20;29.95;;;1.10;99.90;;;;;;5105051;28;20019;-65
2023/01/20 09:45:59;;;;;;;63.40;29.83;;;1.20;99.90;;;;;;5094563;28;20100;-66
2023/01/20 09:54:21;;;;;;;60.40;27.55;;;1.20;99.90;;;;;;5092178;28;20131;-65
2023/01/20 09:56:50;;;;;;;61.65;28.70;;;1.20;99.90;;;;;;5078647;28;20023;-65
2023/01/20 09:59:38;;;;;;;61.92;28.20;;;1.20;99.90;;;;;;5102743;28;20380;-65
2023/01/20 10:02:16;;;;;;;59.42;28.15;;;1.30;99.90;;;;;;5091669;28;20028;-66
2023/01/20 10:04:46;;;;;;;58.88;26.65;;;1.30;99.90;;;;;;5067198;28;20435;-66
2023/01/20 10:07:18;;;;;;;59.67;28.42;;;1.30;99.90;;;;;;5089856;28;20039;-66
2023/01/20 10:09:47;;;;;;;58.35;28.02;;;1.30;99.90;;;;;;5100537;27;20058;-65
2023/01/20 10:12:30;;;;;;;53.47;27.38;;;1.30;99.90;;;;;;5085476;28;20089;-66
2023/01/20 10:15:11;;;;;;;54.60;27.63;;;1.40;99.90;;;;;;5077521;28;20036;-66
2023/01/20 10:17:58;;;;;;;62.20;27.75;;;1.40;99.90;;;;;;5090236;28;20022;-66
2023/01/20 10:21:02;;;;;;;52.42;25.98;;;1.40;99.90;;;;;;5106678;28;20023;-65
2023/01/20 10:23:35;;;;;;;52.70;26.17;;;1.40;99.90;;;;;;5064146;28;20047;-66
2023/01/20 10:26:17;;;;;;;50.90;26.27;;;1.40;99.90;;;;;;5081967;28;20122;-66
2023/01/20 10:28:56;;;;;;;54.38;27.00;;;1.40;99.90;;;;;;5085541;28;20020;-66
2023/01/20 10:31:26;;;;;;;49.20;25.92;;;1.40;99.90;;;;;;5086962;28;20077;-65
2023/01/20 10:34:17;;;;;;;48.28;25.25;;;1.40;99.90;;;;;;5108575;28;20051;-66
2023/01/20 10:36:47;;;;;;;49.53;27.48;;;1.40;99.90;;;;;;5107810;28;20020;-65
2023/01/20 10:39:20;;;;;;;44.00;25.85;;;1.40;99.90;;;;;;5108278;28;20055;-65
2023/01/20 10:41:51;;;;;;;44.75;24.27;;;1.50;99.90;;;;;;5089717;28;20110;-66
2023/01/20 10:44:17;;;;;;;48.05;24.90;;;1.50;99.90;;;;;;5102578;28;20047;-65
2023/01/20 10:46:42;;;;;;;47.35;26.10;;;1.50;99.90;;;;;;5108869;28;20481;-66
2023/01/20 10:49:24;;;;;;;49.55;25.67;;;1.50;99.90;;;;;;5097834;28;20019;-66
2023/01/20 10:52:20;;;;;;;46.88;24.95;;;1.50;99.90;;;;;;5098131;28;20052;-66
2023/01/20 10:55:01;;;;;;;45.42;25.33;;;1.50;99.90;;;;;;5091100;28;20458;-66
2023/01/20 10:57:26;;;;;;;41.72;23.83;;;1.50;99.90;;;;;;5094769;28;20167;-66
2023/01/20 10:59:54;;;;;;;45.25;24.75;;;1.60;99.90;;;;;;5109270;28;20044;-66
2023/01/20 11:02:33;;;;;;;43.83;24.45;;;1.60;99.90;;;;;;5085981;28;20026;-66
2023/01/20 11:05:25;;;;;;;44.75;24.23;;;1.60;99.90;;;;;;5102149;28;20396;-66
2023/01/20 11:07:52;;;;;;;42.30;24.90;;;1.60;99.90;;;;;;5083582;28;20039;-66
2023/01/20 11:10:26;;;;;;;39.30;22.00;;;1.60;99.90;;;;;;5111161;28;20019;-66
2023/01/20 11:12:55;;;;;;;40.50;23.33;;;1.60;99.90;;;;;;5078207;28;20074;-64
2023/01/20 11:15:34;;;;;;;40.10;22.93;;;1.60;99.90;;;;;;5096722;28;20103;-64
2023/01/20 11:18:15;;;;;;;37.75;21.38;;;1.70;99.90;;;;;;5088495;28;20107;-63
2023/01/20 11:21:01;;;;;;;38.33;22.98;;;1.70;99.90;;;;;;5094657;28;20100;-64
2023/01/20 11:23:54;;;;;;;38.40;22.20;;;1.80;99.90;;;;;;5098261;28;20150;-66
2023/01/20 11:26:46;;;;;;;35.58;21.67;;;1.80;99.90;;;;;;5102981;28;20031;-66
2023/01/20 11:29:12;;;;;;;38.35;23.13;;;1.80;99.90;;;;;;5091666;28;20067;-66
2023/01/20 11:31:47;;;;;;;36.60;22.52;;;1.70;99.90;;;;;;5076523;28;20472;-66
2023/01/20 11:34:27;;;;;;;37.53;22.88;;;1.80;99.90;;;;;;5075734;28;20085;-66
2023/01/20 11:37:04;;;;;;;35.93;22.43;;;1.80;99.90;;;;;;5094482;28;20485;-66
2023/01/20 11:39:32;;;;;;;36.45;21.80;;;1.80;99.90;;;;;;5107915;28;20388;-66
2023/01/20 11:42:16;;;;;;;40.17;23.08;;;1.90;99.90;;;;;;5087848;28;20085;-66
2023/01/20 11:44:44;;;;;;;39.83;23.88;;;1.90;99.90;;;;;;5101956;28;20376;-66
2023/01/20 11:47:28;;;;;;;38.05;22.27;;;1.90;99.90;;;;;;5080924;28;20043;-64
2023/01/20 11:50:03;;;;;;;37.20;22.60;;;2.00;99.90;;;;;;5101889;28;20476;-64
2023/01/20 11:52:33;;;;;;;40.22;23.73;;;1.90;99.90;;;;;;5095394;28;20564;-66
2023/01/20 11:55:18;;;;;;;36.50;22.10;;;1.90;99.90;;;;;;5076344;28;20027;-64
2023/01/20 11:58:00;;;;;;;34.53;21.17;;;1.90;99.90;;;;;;5084923;28;20023;-64
2023/01/20 12:00:39;;;;;;;36.63;21.20;;;1.90;99.90;;;;;;5095579;28;20052;-64
2023/01/20 12:03:24;;;;;;;39.15;22.60;;;1.90;99.90;;;;;;5094530;28;20386;-64
2023/01/20 12:06:01;;;;;;;36.65;22.50;;;1.80;99.90;;;;;;5075995;28;20024;-64
2023/01/20 12:08:45;;;;;;;39.35;23.33;;;1.80;99.90;;;;;;5094361;28;20035;-64
2023/01/20 12:11:13;;;;;;;36.95;21.27;;;1.90;99.90;;;;;;5094151;28;20023;-64
2023/01/20 12:16:40;;;;;;;36.42;21.90;;;1.90;99.90;;;;;;5094127;28;20062;-64
2023/01/20 12:19:14;;;;;;;37.50;23.48;;;1.90;99.90;;;;;;5093940;28;20028;-64
2023/01/20 12:21:44;;;;;;;34.33;21.60;;;1.90;99.90;;;;;;5094067;28;20023;-64
2023/01/20 12:24:24;;;;;;;36.78;22.73;;;1.90;99.90;;;;;;5101514;28;20028;-64
2023/01/20 12:26:50;;;;;;;37.10;23.23;;;1.90;99.90;;;;;;5113299;28;20016;-64
2023/01/20 12:29:34;;;;;;;35.72;22.13;;;1.90;99.90;;;;;;5084893;28;20165;-64
2023/01/20 12:31:59;;;;;;;36.17;22.17;;;2.00;99.90;;;;;;5093455;28;20028;-64
2023/01/20 12:34:29;;;;;;;34.50;22.25;;;2.00;99.90;;;;;;5093076;28;20031;-64
2023/01/20 12:37:15;;;;;;;;;;;2.00;99.90;;;;;;5093915;28;20024;-64
2023/01/20 12:40:21;;;;;;;37.55;20.88;;;2.00;99.90;;;;;;5108731;28;19904;-64
2023/01/20 12:43:13;;;;;;;32.60;20.67;;;2.00;99.90;;;;;;5097833;28;20465;-64
2023/01/20 12:45:47;;;;;;;34.38;20.48;;;2.00;99.90;;;;;;5081514;28;20473;-64
2023/01/20 12:48:23;;;;;;;34.33;20.70;;;2.00;99.90;;;;;;5095159;28;20032;-64
2023/01/20 12:51:13;;;;;;;32.33;19.35;;;2.00;99.90;;;;;;5113363;28;20030;-64
2023/01/20 12:53:57;;;;;;;;;;;2.10;99.90;;;;;;5098609;28;20024;-65
2023/01/20 12:57:04;;;;;;;28.75;18.42;;;2.10;99.90;;;;;;5092877;28;19919;-64
2023/01/20 12:59:48;;;;;;;31.23;19.17;;;2.10;99.90;;;;;;5073967;28;20067;-64
2023/01/20 13:02:46;;;;;;;28.10;17.70;;;2.10;99.90;;;;;;5093864;28;20028;-64
2023/01/20 13:05:28;;;;;;;34.47;20.95;;;2.10;99.90;;;;;;5105509;28;20023;-64
2023/01/20 13:08:00;;;;;;;29.60;19.77;;;2.20;99.90;;;;;;5093534;28;20083;-64
2023/01/20 13:10:54;;;;;;;26.38;16.65;;;2.20;99.90;;;;;;5074709;28;20028;-64
2023/01/20 13:13:39;;;;;;;25.30;16.27;;;2.20;99.90;;;;;;5092775;28;20048;-65